Time;durP1;ratioP1;P1;durP2;ratioP2;P2;SDS_P1;SDS_P2;PMS_P1;PMS_P2;Temp;Humidity;BMP_temperature;BMP_pressure;BME280_temperature;BME280_humidity;BME280_pressure;Samples;Min_cycle;Max_cycle;Signal;HPM_P1;HPM_P2
2021/07/10 00:00:29;;;;;;;58.37;2.70;;;14.50;73.80;;;;;;5072152;28;20452;-70
2021/07/10 00:02:55;;;;;;;58.67;2.80;;;14.50;74.50;;;;;;5071983;28;20484;-70
2021/07/10 00:05:22;;;;;;;58.23;2.70;;;14.50;75.10;;;;;;5072017;28;20810;-70
2021/07/10 00:07:49;;;;;;;58.27;2.80;;;14.40;75.90;;;;;;5071952;28;20467;-70
2021/07/10 00:10:18;;;;;;;58.90;3.07;;;14.40;76.50;;;;;;5071930;28;20448;-70
2021/07/10 00:12:45;;;;;;;58.57;3.13;;;14.40;76.30;;;;;;5072110;28;20514;-70
2021/07/10 00:15:16;;;;;;;58.60;2.70;;;14.40;76.30;;;;;;5072026;28;20582;-69
2021/07/10 00:17:44;;;;;;;58.70;2.90;;;14.40;76.90;;;;;;5072076;28;20448;-70
2021/07/10 00:20:12;;;;;;;58.40;2.93;;;14.30;77.70;;;;;;5071918;28;20540;-70
2021/07/10 00:22:40;;;;;;;58.53;2.80;;;14.30;77.90;;;;;;5072086;28;20542;-70
2021/07/10 00:25:09;;;;;;;58.37;2.63;;;14.30;78.90;;;;;;5071865;28;20552;-70
2021/07/10 00:27:35;;;;;;;58.30;2.90;;;14.30;79.00;;;;;;5071881;28;21047;-70
2021/07/10 00:30:04;;;;;;;59.97;3.53;;;14.30;78.50;;;;;;5072064;28;20452;-70
2021/07/10 00:32:31;;;;;;;58.47;2.93;;;14.20;78.10;;;;;;5071801;28;20480;-70
2021/07/10 00:34:59;;;;;;;59.07;3.67;;;14.20;77.70;;;;;;5071671;28;20895;-70
2021/07/10 00:37:26;;;;;;;59.20;4.10;;;14.20;77.50;;;;;;5071692;28;21031;-70
2021/07/10 00:39:53;;;;;;;58.57;3.20;;;14.10;77.50;;;;;;5072119;28;20446;-71
2021/07/10 00:42:21;;;;;;;58.17;2.70;;;14.10;77.50;;;;;;5072003;28;20826;-70
2021/07/10 00:44:49;;;;;;;58.43;3.00;;;14.10;78.10;;;;;;5072158;28;20468;-71
2021/07/10 00:47:16;;;;;;;58.37;2.80;;;14.00;77.20;;;;;;5071915;28;20455;-71
2021/07/10 00:49:43;;;;;;;58.57;2.90;;;14.00;77.90;;;;;;5071837;28;20539;-70
2021/07/10 00:52:11;;;;;;;58.47;3.00;;;14.00;78.30;;;;;;5071592;28;20452;-70
2021/07/10 00:54:38;;;;;;;58.70;3.37;;;14.00;79.10;;;;;;5071452;28;20470;-70
2021/07/10 00:57:07;;;;;;;58.37;3.00;;;14.00;79.00;;;;;;5071824;28;20827;-70
2021/07/10 00:59:36;;;;;;;58.60;3.47;;;14.00;78.80;;;;;;5071673;28;20470;-70
2021/07/10 01:02:04;;;;;;;58.60;3.00;;;13.90;78.70;;;;;;5071483;28;20818;-70
2021/07/10 01:04:31;;;;;;;58.47;2.90;;;13.90;79.60;;;;;;5074608;28;20479;-70
2021/07/10 01:06:58;;;;;;;58.47;3.00;;;13.90;79.60;;;;;;5075656;28;20447;-70
2021/07/10 01:09:26;;;;;;;58.47;2.80;;;13.90;80.50;;;;;;5075077;28;20530;-70
2021/07/10 01:11:53;;;;;;;58.57;3.20;;;13.80;80.90;;;;;;5075034;28;20452;-70
2021/07/10 01:14:20;;;;;;;59.20;3.23;;;13.80;81.50;;;;;;5075139;28;20474;-70
2021/07/10 01:16:47;;;;;;;58.40;2.90;;;13.80;81.20;;;;;;5075403;28;20502;-70
2021/07/10 01:19:21;;;;;;;58.17;2.60;;;13.80;81.20;;;;;;5075638;28;20896;-70
2021/07/10 01:21:50;;;;;;;58.47;2.90;;;13.80;82.30;;;;;;5075027;28;20452;-71
2021/07/10 01:24:17;;;;;;;58.50;3.03;;;13.80;82.80;;;;;;5075456;28;20468;-71
2021/07/10 01:26:44;;;;;;;58.80;3.10;;;13.80;82.00;;;;;;5075300;28;20454;-70
2021/07/10 01:29:11;;;;;;;58.37;2.83;;;13.80;81.00;;;;;;5075302;28;20489;-70
2021/07/10 01:31:39;;;;;;;58.40;2.90;;;13.80;81.40;;;;;;5074573;28;20627;-70
2021/07/10 01:34:06;;;;;;;58.37;2.90;;;13.70;80.70;;;;;;5074801;28;20466;-69
2021/07/10 01:36:33;;;;;;;58.37;2.67;;;13.70;81.00;;;;;;5074935;28;20569;-70
2021/07/10 01:39:02;;;;;;;58.33;2.40;;;13.70;81.20;;;;;;5074972;28;20445;-70
2021/07/10 01:41:29;;;;;;;58.37;3.03;;;13.70;81.80;;;;;;5074594;28;20447;-70
2021/07/10 01:43:56;;;;;;;58.40;2.97;;;13.70;81.70;;;;;;5074619;28;20558;-70
2021/07/10 01:46:22;;;;;;;58.53;2.93;;;13.70;82.20;;;;;;5074833;28;20878;-70
2021/07/10 01:48:49;;;;;;;58.87;3.53;;;13.60;82.40;;;;;;5074942;28;20485;-70
2021/07/10 01:51:16;;;;;;;58.37;2.77;;;13.60;82.10;;;;;;5074544;28;20446;-70
2021/07/10 01:53:43;;;;;;;58.17;2.60;;;13.60;83.30;;;;;;5074309;28;20830;-70
2021/07/10 01:56:11;;;;;;;58.47;3.20;;;13.60;84.80;;;;;;5074215;28;20493;-70
2021/07/10 01:58:38;;;;;;;58.43;3.20;;;13.60;86.40;;;;;;5074068;28;20879;-70
2021/07/10 02:01:05;;;;;;;58.23;2.63;;;13.60;87.20;;;;;;5074391;28;20537;-69
2021/07/10 02:03:32;;;;;;;58.67;2.70;;;13.60;87.50;;;;;;5074083;28;20515;-70
2021/07/10 02:05:59;;;;;;;58.97;3.60;;;13.50;88.50;;;;;;5074311;28;20949;-70
2021/07/10 02:08:25;;;;;;;58.40;3.00;;;13.50;89.60;;;;;;5074246;28;20501;-70
2021/07/10 02:10:52;;;;;;;58.30;2.80;;;13.50;90.60;;;;;;5074077;28;20864;-71
2021/07/10 02:13:21;;;;;;;58.27;2.70;;;13.50;91.10;;;;;;5073409;28;20558;-70
2021/07/10 02:15:48;;;;;;;58.37;2.90;;;13.50;91.50;;;;;;5073784;28;20591;-70
2021/07/10 02:18:14;;;;;;;59.00;3.43;;;13.50;91.70;;;;;;5074261;28;20455;-70
2021/07/10 02:20:41;;;;;;;58.77;3.13;;;13.50;91.80;;;;;;5073905;28;20443;-70
2021/07/10 02:23:08;;;;;;;58.80;3.33;;;13.50;92.00;;;;;;5073502;28;20538;-70
2021/07/10 02:25:35;;;;;;;58.27;2.80;;;13.50;92.20;;;;;;5073612;28;20443;-70
2021/07/10 02:28:02;;;;;;;58.17;2.70;;;13.40;92.60;;;;;;5073650;28;20974;-71
2021/07/10 02:30:34;;;;;;;58.37;2.70;;;13.40;92.60;;;;;;5073882;28;20484;-70
2021/07/10 02:33:02;;;;;;;59.93;3.70;;;13.40;93.00;;;;;;5073685;28;20868;-70
2021/07/10 02:35:30;;;;;;;58.37;2.67;;;13.40;93.20;;;;;;5073656;28;20485;-70
2021/07/10 02:37:58;;;;;;;58.50;2.70;;;13.30;93.50;;;;;;5073722;28;20450;-71
2021/07/10 02:40:26;;;;;;;58.47;2.80;;;13.30;93.20;;;;;;5073673;28;20494;-71
2021/07/10 02:42:54;;;;;;;58.47;2.77;;;13.30;93.60;;;;;;5073212;28;20453;-71
2021/07/10 02:45:21;;;;;;;59.43;4.47;;;13.30;94.50;;;;;;5073836;28;20467;-71
2021/07/10 02:47:50;;;;;;;60.40;3.60;;;13.30;94.70;;;;;;5073512;28;20447;-71
2021/07/10 02:50:23;;;;;;;58.10;2.77;;;13.30;96.20;;;;;;5073565;28;20451;-71
2021/07/10 02:52:51;;;;;;;58.37;3.03;;;13.40;97.90;;;;;;5073061;28;21007;-70
2021/07/10 02:55:18;;;;;;;58.47;2.70;;;13.40;99.50;;;;;;5073191;28;20991;-70
2021/07/10 02:57:45;;;;;;;58.77;3.10;;;13.40;99.90;;;;;;5073190;28;20536;-69
2021/07/10 03:00:14;;;;;;;59.00;3.87;;;13.40;99.90;;;;;;5073232;28;20458;-71
2021/07/10 03:02:41;;;;;;;58.37;2.93;;;13.40;99.90;;;;;;5073182;28;20451;-69
2021/07/10 03:05:11;;;;;;;58.37;3.10;;;13.40;99.90;;;;;;5073088;28;20470;-69
2021/07/10 03:07:38;;;;;;;58.10;2.80;;;13.50;99.90;;;;;;5073047;28;20533;-70
2021/07/10 03:10:06;;;;;;;58.50;2.90;;;13.50;99.90;;;;;;5073059;28;20535;-71
2021/07/10 03:12:33;;;;;;;58.37;2.70;;;13.50;99.90;;;;;;5072860;28;20530;-70
2021/07/10 03:15:00;;;;;;;58.37;2.77;;;13.60;99.90;;;;;;5073119;28;20554;-70
2021/07/10 03:17:27;;;;;;;59.13;3.50;;;13.60;99.90;;;;;;5072777;28;20484;-70
2021/07/10 03:19:54;;;;;;;58.23;2.83;;;13.60;99.90;;;;;;5073040;28;20538;-69
2021/07/10 03:22:22;;;;;;;58.60;3.03;;;13.60;99.90;;;;;;5072874;28;20878;-70
2021/07/10 03:24:49;;;;;;;58.57;3.07;;;13.60;99.90;;;;;;5072909;28;20903;-70
2021/07/10 03:27:16;;;;;;;58.70;3.23;;;13.60;99.90;;;;;;5072243;28;20440;-70
2021/07/10 03:29:43;;;;;;;59.00;3.20;;;13.60;99.90;;;;;;5072874;28;20539;-70
2021/07/10 03:32:10;;;;;;;59.60;3.93;;;13.50;99.90;;;;;;5072956;28;20482;-70
2021/07/10 03:34:37;;;;;;;58.53;2.80;;;13.50;99.90;;;;;;5072701;28;20590;-70
2021/07/10 03:37:04;;;;;;;58.33;3.00;;;13.50;99.90;;;;;;5072685;28;20575;-70
2021/07/10 03:39:32;;;;;;;59.33;3.83;;;13.50;99.90;;;;;;5072695;28;20538;-71
2021/07/10 03:41:59;;;;;;;58.37;2.90;;;13.50;99.90;;;;;;5072568;28;20447;-71
2021/07/10 03:44:26;;;;;;;58.17;3.00;;;13.50;99.90;;;;;;5072659;28;20912;-71
2021/07/10 03:46:53;;;;;;;58.47;2.80;;;13.50;99.90;;;;;;5072361;28;20465;-71
2021/07/10 03:49:20;;;;;;;58.60;2.70;;;13.40;99.90;;;;;;5072729;28;20535;-70
2021/07/10 03:51:47;;;;;;;60.37;3.33;;;13.40;99.90;;;;;;5072240;28;20490;-70
2021/07/10 03:54:14;;;;;;;58.27;3.10;;;13.40;99.90;;;;;;5072546;28;20506;-70
2021/07/10 03:56:42;;;;;;;58.37;3.03;;;13.30;99.90;;;;;;5072486;28;20566;-70
2021/07/10 03:59:09;;;;;;;58.37;2.53;;;13.30;99.90;;;;;;5072387;28;20490;-70
2021/07/10 04:01:35;;;;;;;58.60;3.03;;;13.30;99.90;;;;;;5072156;28;20962;-70
2021/07/10 04:04:02;;;;;;;58.30;2.90;;;13.30;99.90;;;;;;5072323;28;20476;-69
2021/07/10 04:06:29;;;;;;;58.27;2.90;;;13.40;99.90;;;;;;5072833;28;20462;-70
2021/07/10 04:08:56;;;;;;;58.30;3.10;;;13.50;99.90;;;;;;5072660;28;20537;-70
2021/07/10 04:11:23;;;;;;;58.33;2.70;;;13.50;99.90;;;;;;5072382;28;20539;-70
2021/07/10 04:13:51;;;;;;;58.30;2.90;;;13.60;99.90;;;;;;5072397;28;20921;-70
2021/07/10 04:16:18;;;;;;;58.33;2.90;;;13.60;99.90;;;;;;5072474;28;21098;-70
2021/07/10 04:18:45;;;;;;;58.13;2.90;;;13.60;99.90;;;;;;5072565;28;20444;-71
2021/07/10 04:21:12;;;;;;;58.47;2.97;;;13.60;99.90;;;;;;5072639;28;20539;-70
2021/07/10 04:23:39;;;;;;;58.50;3.00;;;13.60;99.90;;;;;;5072113;28;20567;-70
2021/07/10 04:26:05;;;;;;;58.50;3.40;;;13.60;99.90;;;;;;5072356;28;20796;-70
2021/07/10 04:28:32;;;;;;;59.17;3.47;;;13.60;99.90;;;;;;5072184;28;20534;-70
2021/07/10 04:31:01;;;;;;;58.17;2.90;;;13.60;99.90;;;;;;5072428;28;20461;-70
2021/07/10 04:33:28;;;;;;;58.27;3.07;;;13.60;99.90;;;;;;5072205;28;20469;-70
2021/07/10 04:35:55;;;;;;;60.40;3.17;;;13.60;99.90;;;;;;5072240;28;20577;-70
2021/07/10 04:38:22;;;;;;;58.07;2.90;;;13.70;99.90;;;;;;5075343;28;20545;-70
2021/07/10 04:40:49;;;;;;;58.47;3.00;;;13.70;99.90;;;;;;5076347;28;20490;-70
2021/07/10 04:43:16;;;;;;;58.63;3.20;;;13.70;99.90;;;;;;5075985;28;20529;-70
2021/07/10 04:45:43;;;;;;;59.17;3.43;;;13.70;99.90;;;;;;5076366;28;20447;-70
2021/07/10 04:48:11;;;;;;;58.03;2.70;;;13.80;99.90;;;;;;5076565;28;20470;-70
2021/07/10 04:50:38;;;;;;;57.93;2.70;;;13.80;99.90;;;;;;5076216;28;20451;-70
2021/07/10 04:53:05;;;;;;;58.17;2.80;;;13.80;99.90;;;;;;5075586;28;20537;-70
2021/07/10 04:55:32;;;;;;;58.07;2.70;;;13.80;99.90;;;;;;5076152;28;20452;-70
2021/07/10 04:57:59;;;;;;;58.07;2.80;;;13.90;99.90;;;;;;5075900;28;21032;-71
2021/07/10 05:00:28;;;;;;;58.03;2.90;;;13.90;99.90;;;;;;5076163;28;20445;-70
2021/07/10 05:02:55;;;;;;;58.50;3.33;;;13.90;99.90;;;;;;5075253;28;20969;-70
2021/07/10 05:05:23;;;;;;;58.00;2.57;;;13.90;99.90;;;;;;5075784;28;20546;-70
2021/07/10 05:07:50;;;;;;;58.33;2.90;;;14.00;99.90;;;;;;5075921;28;20815;-70
2021/07/10 05:10:17;;;;;;;58.13;3.27;;;14.00;99.90;;;;;;5075578;28;20545;-71
2021/07/10 05:12:43;;;;;;;58.30;3.03;;;14.00;99.90;;;;;;5075725;28;20443;-70
2021/07/10 05:15:11;;;;;;;57.90;2.70;;;14.10;99.90;;;;;;5075588;28;20459;-69
2021/07/10 05:17:38;;;;;;;58.00;2.73;;;14.10;99.90;;;;;;5075470;28;20482;-70
2021/07/10 05:20:06;;;;;;;58.10;2.90;;;14.10;99.90;;;;;;5075612;28;20453;-70
2021/07/10 05:22:35;;;;;;;57.87;2.50;;;14.20;99.90;;;;;;5075325;28;20542;-70
2021/07/10 05:25:02;;;;;;;58.03;3.00;;;14.20;99.90;;;;;;5075263;28;20574;-70
2021/07/10 05:27:28;;;;;;;58.80;3.30;;;14.20;99.90;;;;;;5075530;28;20440;-70
2021/07/10 05:29:55;;;;;;;58.13;3.07;;;14.30;99.90;;;;;;5075668;28;20539;-70
2021/07/10 05:32:22;;;;;;;57.87;2.50;;;14.40;99.90;;;;;;5075200;28;20840;-70
2021/07/10 05:34:49;;;;;;;57.93;2.63;;;14.50;99.90;;;;;;5075309;28;20467;-70
2021/07/10 05:37:16;;;;;;;57.97;2.73;;;14.50;99.90;;;;;;5075195;28;20576;-70
2021/07/10 05:39:44;;;;;;;58.27;2.80;;;14.50;99.90;;;;;;5074821;28;20546;-68
2021/07/10 05:42:12;;;;;;;58.00;2.50;;;14.60;99.90;;;;;;5074326;28;20447;-68
2021/07/10 05:44:38;;;;;;;58.60;3.10;;;14.70;99.90;;;;;;5074364;28;20551;-68
2021/07/10 05:47:06;;;;;;;58.50;2.83;;;14.70;99.90;;;;;;5074344;28;20447;-68
2021/07/10 05:49:32;;;;;;;57.57;2.60;;;14.70;99.90;;;;;;5073689;28;20534;-70
2021/07/10 05:51:59;;;;;;;57.87;2.67;;;14.70;99.90;;;;;;5075006;28;20483;-70
2021/07/10 05:54:26;;;;;;;58.40;3.20;;;14.80;99.90;;;;;;5075993;28;20473;-70
2021/07/10 05:56:55;;;;;;;57.90;2.93;;;14.90;99.90;;;;;;5075822;28;20487;-69
2021/07/10 05:59:22;;;;;;;58.50;3.40;;;15.00;99.90;;;;;;5075509;28;20452;-68
2021/07/10 06:01:48;;;;;;;58.97;3.53;;;15.10;99.90;;;;;;5074938;28;20451;-69
2021/07/10 06:04:15;;;;;;;57.93;2.60;;;15.10;99.90;;;;;;5075337;28;20572;-69
2021/07/10 06:06:43;;;;;;;57.97;2.70;;;15.10;99.90;;;;;;5074646;28;20447;-70
2021/07/10 06:09:10;;;;;;;58.13;2.90;;;15.10;99.90;;;;;;5074310;28;20591;-69
2021/07/10 06:11:36;;;;;;;58.50;3.70;;;15.00;99.90;;;;;;5073918;28;20877;-69
2021/07/10 06:14:08;;;;;;;57.97;2.70;;;15.10;99.90;;;;;;5074241;28;20548;-69
2021/07/10 06:16:35;;;;;;;58.60;3.30;;;15.10;99.90;;;;;;5073939;28;20490;-69
2021/07/10 06:19:02;;;;;;;58.90;3.77;;;15.10;99.90;;;;;;5073642;28;20451;-69
2021/07/10 06:21:28;;;;;;;58.30;2.73;;;15.30;99.90;;;;;;5073699;28;20537;-69
2021/07/10 06:23:56;;;;;;;58.03;2.97;;;15.40;99.90;;;;;;5074069;28;20480;-70
2021/07/10 06:26:23;;;;;;;58.23;2.80;;;15.40;99.90;;;;;;5074294;28;20453;-69
2021/07/10 06:28:50;;;;;;;58.40;3.20;;;15.40;99.40;;;;;;5074298;28;20512;-69
2021/07/10 06:31:19;;;;;;;58.60;3.50;;;15.50;99.60;;;;;;5073934;28;20444;-69
2021/07/10 06:33:46;;;;;;;58.23;2.70;;;15.60;99.60;;;;;;5073870;28;20559;-69
2021/07/10 06:36:13;;;;;;;58.60;3.40;;;15.70;99.30;;;;;;5073938;28;20446;-68
2021/07/10 06:38:39;;;;;;;57.97;2.70;;;15.80;99.30;;;;;;5074246;28;20540;-68
2021/07/10 06:41:07;;;;;;;58.27;2.80;;;15.90;98.70;;;;;;5073451;28;20446;-69
2021/07/10 06:43:33;;;;;;;58.23;2.60;;;16.00;97.30;;;;;;5073400;28;20475;-68
2021/07/10 06:46:02;;;;;;;58.23;3.30;;;16.10;96.70;;;;;;5073516;28;20540;-69
2021/07/10 06:48:30;;;;;;;58.67;2.70;;;16.10;94.90;;;;;;5073528;28;20464;-69
2021/07/10 06:50:57;;;;;;;58.27;2.70;;;16.20;94.90;;;;;;5073708;28;20446;-69
2021/07/10 06:53:24;;;;;;;58.17;3.00;;;16.30;94.50;;;;;;5073345;28;20557;-69
2021/07/10 06:55:51;;;;;;;58.20;2.73;;;16.40;92.90;;;;;;5073316;28;20820;-69
2021/07/10 06:58:18;;;;;;;57.90;2.70;;;16.50;92.20;;;;;;5073249;28;20573;-69
2021/07/10 07:00:48;;;;;;;58.13;2.60;;;16.60;89.80;;;;;;5073106;28;20446;-69
2021/07/10 07:03:15;;;;;;;58.60;2.70;;;16.60;86.10;;;;;;5072764;28;20993;-69
2021/07/10 07:05:43;;;;;;;59.20;3.73;;;16.70;83.50;;;;;;5073205;28;20950;-69
2021/07/10 07:08:10;;;;;;;58.77;3.20;;;16.80;79.80;;;;;;5073010;28;20453;-69
2021/07/10 07:10:38;;;;;;;58.37;3.03;;;16.80;75.50;;;;;;5073077;28;20545;-69
2021/07/10 07:13:05;;;;;;;58.27;3.00;;;16.90;72.10;;;;;;5072503;28;20916;-70
2021/07/10 07:15:32;;;;;;;58.47;3.20;;;17.00;68.10;;;;;;5073041;28;20446;-70
2021/07/10 07:17:59;;;;;;;58.37;2.80;;;17.10;64.00;;;;;;5073160;28;20486;-70
2021/07/10 07:20:26;;;;;;;58.27;2.83;;;17.10;55.40;;;;;;5073314;28;20460;-70
2021/07/10 07:22:55;;;;;;;58.17;2.73;;;17.20;48.90;;;;;;5072781;28;20451;-70
2021/07/10 07:25:23;;;;;;;59.10;3.77;;;17.30;45.80;;;;;;5072840;28;20857;-70
2021/07/10 07:27:52;;;;;;;58.23;2.60;;;17.40;46.30;;;;;;5073171;28;20478;-70
2021/07/10 07:30:20;;;;;;;58.60;3.10;;;17.50;42.00;;;;;;5073732;28;20446;-70
2021/07/10 07:32:47;;;;;;;58.50;3.00;;;17.70;26.80;;;;;;5073020;28;20506;-71
2021/07/10 07:35:15;;;;;;;59.50;3.90;;;17.80;19.30;;;;;;5073722;28;20474;-68
2021/07/10 07:37:42;;;;;;;58.60;3.30;;;17.90;11.40;;;;;;5074375;28;20481;-68
2021/07/10 07:40:14;;;;;;;58.40;2.97;;;18.00;7.40;;;;;;5074404;28;20546;-68
2021/07/10 07:42:41;;;;;;;58.20;2.80;;;18.20;3.40;;;;;;5074196;28;20952;-70
2021/07/10 07:45:10;;;;;;;58.27;3.20;;;18.20;1.00;;;;;;5074684;28;20470;-70
2021/07/10 07:47:37;;;;;;;58.07;2.60;;;18.40;1.00;;;;;;5073702;28;20443;-70
2021/07/10 07:50:05;;;;;;;57.93;3.00;;;18.50;1.00;;;;;;5073805;28;20537;-70
2021/07/10 07:52:31;;;;;;;58.00;2.90;;;18.50;1.00;;;;;;5073688;28;20453;-70
2021/07/10 07:54:58;;;;;;;58.30;3.00;;;18.70;1.00;;;;;;5073654;28;20474;-70
2021/07/10 07:57:27;;;;;;;59.43;3.53;;;18.80;1.00;;;;;;5072706;28;20574;-70
2021/07/10 07:59:53;;;;;;;58.30;3.07;;;18.90;1.00;;;;;;5073483;28;20443;-70
2021/07/10 08:02:22;;;;;;;58.37;3.50;;;19.00;1.00;;;;;;5072537;28;20534;-70
2021/07/10 08:04:50;;;;;;;58.80;2.97;;;19.10;1.00;;;;;;5073192;28;20479;-69
2021/07/10 08:07:16;;;;;;;58.50;3.33;;;19.20;1.00;;;;;;5072985;28;20533;-70
2021/07/10 08:09:44;;;;;;;58.70;3.63;;;19.30;1.00;;;;;;5072822;28;20479;-70
2021/07/10 08:12:12;;;;;;;58.60;3.00;;;19.40;1.00;;;;;;5071931;28;21022;-70
2021/07/10 08:14:40;;;;;;;58.33;2.90;;;19.60;1.00;;;;;;5072352;28;20459;-70
2021/07/10 08:17:07;;;;;;;58.20;2.60;;;19.70;1.00;;;;;;5072081;28;20582;-69
2021/07/10 08:19:34;;;;;;;58.70;3.00;;;19.90;1.00;;;;;;5071989;28;20536;-69
2021/07/10 08:22:01;;;;;;;58.87;3.20;;;20.00;1.00;;;;;;5071307;28;20445;-70
2021/07/10 08:24:28;;;;;;;59.17;3.50;;;20.10;1.00;;;;;;5071781;28;20567;-69
2021/07/10 08:26:54;;;;;;;58.03;2.80;;;20.30;1.00;;;;;;5071844;28;20541;-69
2021/07/10 08:29:21;;;;;;;58.50;2.93;;;20.40;1.00;;;;;;5071764;28;20533;-70
2021/07/10 08:31:49;;;;;;;58.37;3.30;;;20.50;1.00;;;;;;5071352;28;20450;-69
2021/07/10 08:34:16;;;;;;;58.50;2.97;;;20.70;1.00;;;;;;5071564;28;20461;-70
2021/07/10 08:36:43;;;;;;;58.30;2.40;;;20.80;1.00;;;;;;5071516;28;20887;-70
2021/07/10 08:39:10;;;;;;;58.40;3.20;;;21.00;1.00;;;;;;5071631;28;20571;-70
2021/07/10 08:41:37;;;;;;;58.07;3.17;;;21.00;1.00;;;;;;5071223;28;20980;-68
2021/07/10 08:44:05;;;;;;;58.10;2.47;;;21.10;1.00;;;;;;5071436;28;20985;-69
2021/07/10 08:46:33;;;;;;;58.57;2.80;;;21.10;1.00;;;;;;5071423;28;20445;-69
2021/07/10 08:49:02;;;;;;;58.50;2.80;;;21.20;1.00;;;;;;5071405;28;20528;-69
2021/07/10 08:51:29;;;;;;;58.40;3.00;;;21.30;1.00;;;;;;5071165;28;20940;-69
2021/07/10 08:53:56;;;;;;;58.33;2.83;;;21.40;1.00;;;;;;5071380;28;20474;-69
2021/07/10 08:56:23;;;;;;;58.03;2.50;;;21.50;1.00;;;;;;5071465;28;20548;-69
2021/07/10 08:58:50;;;;;;;59.17;3.27;;;21.50;1.00;;;;;;5071136;28;20571;-69
2021/07/10 09:01:17;;;;;;;58.17;2.63;;;21.60;1.00;;;;;;5071096;28;20539;-69
2021/07/10 09:03:44;;;;;;;58.00;2.33;;;21.70;1.00;;;;;;5070829;28;20485;-69
2021/07/10 09:06:12;;;;;;;61.50;2.60;;;21.80;1.00;;;;;;5071475;28;20454;-70
2021/07/10 09:08:40;;;;;;;58.10;2.87;;;21.90;1.00;;;;;;5071402;28;20533;-69
2021/07/10 09:11:13;;;;;;;58.20;2.40;;;22.00;1.00;;;;;;5071331;28;20455;-69
2021/07/10 09:13:41;;;;;;;58.03;2.80;;;22.20;1.00;;;;;;5071064;28;20468;-70
2021/07/10 09:16:10;;;;;;;58.30;2.50;;;22.30;1.00;;;;;;5071067;28;20538;-70
2021/07/10 09:18:40;;;;;;;58.53;2.67;;;22.40;1.00;;;;;;5071533;28;20485;-69
2021/07/10 09:21:07;;;;;;;58.20;2.60;;;22.50;1.00;;;;;;5071155;28;20457;-70
2021/07/10 09:23:39;;;;;;;58.10;2.50;;;22.60;1.00;;;;;;5070948;28;20835;-70
2021/07/10 09:26:25;;;;;;;58.40;2.93;;;22.80;1.00;;;;;;5074247;28;20852;-70
2021/07/10 09:29:08;;;;;;;57.47;2.40;;;23.00;1.00;;;;;;5074833;28;20475;-68
2021/07/10 09:31:37;;;;;;;57.83;2.20;;;23.20;1.00;;;;;;5073746;28;20454;-68
2021/07/10 09:34:13;;;;;;;57.77;2.40;;;23.40;1.00;;;;;;5074899;28;20497;-69
2021/07/10 09:36:57;;;;;;;58.70;3.53;;;23.40;1.00;;;;;;5073142;28;20477;-68
2021/07/10 09:39:27;;;;;;;58.30;3.13;;;23.60;1.00;;;;;;5074550;28;20487;-68
2021/07/10 09:41:55;;;;;;;57.87;2.80;;;23.70;1.00;;;;;;5073783;28;20446;-69
2021/07/10 09:44:22;;;;;;;58.17;2.60;;;23.70;1.00;;;;;;5074244;28;20511;-69
2021/07/10 09:46:49;;;;;;;58.10;2.53;;;23.70;1.00;;;;;;5074016;28;20446;-69
2021/07/10 09:49:28;;;;;;;58.27;2.50;;;23.90;1.00;;;;;;5073955;28;21016;-69
2021/07/10 09:52:07;;;;;;;57.97;2.50;;;24.20;1.00;;;;;;5074468;28;20867;-69
2021/07/10 09:54:37;;;;;;;58.07;2.50;;;24.40;1.00;;;;;;5074116;28;20472;-69
2021/07/10 09:57:14;;;;;;;57.77;2.20;;;24.40;1.00;;;;;;5074850;28;20537;-69
2021/07/10 09:59:44;;;;;;;58.00;2.50;;;24.60;1.00;;;;;;5074346;28;20449;-70
2021/07/10 10:02:17;;;;;;;58.50;3.07;;;24.80;1.00;;;;;;5073530;28;20482;-69
2021/07/10 10:04:45;;;;;;;57.93;2.90;;;25.00;1.00;;;;;;5073878;28;20562;-70
2021/07/10 10:07:14;;;;;;;58.60;3.40;;;25.10;1.00;;;;;;5073938;28;20452;-69
2021/07/10 10:09:43;;;;;;;57.73;2.30;;;25.40;1.00;;;;;;5074193;28;21035;-69
2021/07/10 10:12:12;;;;;;;57.87;2.33;;;25.50;1.00;;;;;;5073988;28;20441;-68
2021/07/10 10:14:48;;;;;;;58.37;2.80;;;25.60;1.00;;;;;;5073830;28;20467;-69
2021/07/10 10:17:16;;;;;;;57.77;2.20;;;25.70;1.00;;;;;;5073087;28;20551;-69
2021/07/10 10:19:43;;;;;;;57.70;2.33;;;25.50;1.00;;;;;;5073899;28;21089;-69
2021/07/10 10:22:13;;;;;;;58.60;3.00;;;25.30;1.00;;;;;;5072815;28;20448;-68
2021/07/10 10:24:43;;;;;;;57.77;2.20;;;25.20;1.00;;;;;;5073740;28;20496;-68
2021/07/10 10:27:10;;;;;;;58.50;2.97;;;25.40;1.00;;;;;;5074000;28;20543;-69
2021/07/10 10:29:38;;;;;;;57.93;2.37;;;26.50;1.00;;;;;;5073722;28;20444;-68
2021/07/10 10:32:07;;;;;;;57.30;2.13;;;27.70;1.00;;;;;;5073039;28;20443;-70
2021/07/10 10:34:34;;;;;;;57.77;2.60;;;28.10;1.00;;;;;;5073581;28;20470;-69
2021/07/10 10:37:01;;;;;;;57.87;2.50;;;28.00;1.00;;;;;;5073204;28;20452;-70
2021/07/10 10:39:33;;;;;;;57.87;2.50;;;28.20;1.00;;;;;;5072168;28;20471;-69
2021/07/10 10:42:05;;;;;;;58.30;2.70;;;29.00;1.00;;;;;;5071888;28;21012;-69
2021/07/10 10:44:38;;;;;;;58.60;2.73;;;30.20;1.00;;;;;;5071503;28;20828;-70
2021/07/10 10:47:06;;;;;;;57.73;2.40;;;31.30;1.00;;;;;;5071610;28;20446;-69
2021/07/10 10:49:45;;;;;;;58.43;2.53;;;32.20;1.00;;;;;;5070541;28;20531;-69
2021/07/10 10:52:33;;;;;;;57.60;2.40;;;32.60;1.00;;;;;;5053867;28;20948;-70
2021/07/10 10:55:06;;;;;;;57.33;2.10;;;33.40;1.00;;;;;;5053210;28;20995;-70
2021/07/10 10:57:38;;;;;;;57.57;2.40;;;34.20;1.00;;;;;;5053577;28;20459;-69
2021/07/10 11:00:27;;;;;;;57.27;2.30;;;34.80;1.00;;;;;;5053687;28;20448;-70
2021/07/10 11:03:01;;;;;;;57.80;2.53;;;35.50;1.00;;;;;;5053160;28;20826;-71
2021/07/10 11:05:44;;;;;;;57.47;2.13;;;36.00;1.00;;;;;;5053191;28;20444;-70
2021/07/10 11:08:32;;;;;;;57.70;2.23;;;36.20;1.00;;;;;;5053377;28;20444;-70
2021/07/10 11:11:26;;;;;;;57.10;1.90;;;36.30;1.00;;;;;;5052859;28;20449;-70
2021/07/10 11:14:28;;;;;;;57.13;1.93;;;36.30;1.00;;;;;;5052889;28;20468;-70
2021/07/10 11:17:20;;;;;;;57.43;2.10;;;36.40;1.00;;;;;;5052821;28;21003;-69
2021/07/10 11:19:54;;;;;;;57.50;2.63;;;36.80;1.00;;;;;;5043195;28;20517;-70
2021/07/10 11:22:55;;;;;;;56.97;2.20;;;36.70;1.00;;;;;;5072245;28;20452;-70
2021/07/10 11:26:09;;;;;;;57.20;2.03;;;36.40;1.00;;;;;;5072394;28;20460;-69
2021/07/10 11:28:51;;;;;;;57.37;2.20;;;36.30;1.00;;;;;;5072387;28;20446;-69
2021/07/10 11:31:24;;;;;;;56.77;2.07;;;36.30;1.00;;;;;;5072554;28;20819;-69
2021/07/10 11:34:07;;;;;;;57.20;2.20;;;36.70;1.00;;;;;;5072519;28;20459;-70
2021/07/10 11:36:52;;;;;;;56.93;2.20;;;37.40;1.00;;;;;;5072995;28;20450;-70
2021/07/10 11:40:01;;;;;;;57.10;2.23;;;37.00;1.00;;;;;;5072343;28;20494;-70
2021/07/10 11:42:50;;;;;;;57.10;2.10;;;36.40;1.00;;;;;;5071649;28;20449;-70
2021/07/10 11:45:29;;;;;;;57.07;2.30;;;36.50;1.00;;;;;;5071460;28;20478;-69
2021/07/10 11:47:59;;;;;;;57.07;2.10;;;36.40;1.00;;;;;;5070947;28;20530;-70
2021/07/10 11:50:28;;;;;;;57.07;1.90;;;36.50;1.00;;;;;;5070833;28;20453;-69
2021/07/10 11:52:58;;;;;;;57.10;2.10;;;37.30;1.00;;;;;;5072091;28;20447;-70
2021/07/10 11:55:26;;;;;;;57.00;2.20;;;38.10;1.00;;;;;;5072178;28;20468;-69
2021/07/10 11:57:54;;;;;;;57.07;2.20;;;38.50;1.00;;;;;;5072061;28;20447;-70
2021/07/10 12:00:23;;;;;;;57.00;2.10;;;38.60;1.00;;;;;;5072444;28;20447;-69
2021/07/10 12:02:50;;;;;;;57.17;2.43;;;38.90;1.00;;;;;;5071569;28;20547;-69
2021/07/10 12:05:20;;;;;;;57.00;2.20;;;39.10;1.00;;;;;;5072316;28;20485;-69
2021/07/10 12:07:50;;;;;;;56.83;2.20;;;39.10;1.00;;;;;;5072092;28;20479;-69
2021/07/10 12:10:20;;;;;;;56.97;2.20;;;39.10;1.00;;;;;;5072217;28;20542;-69
2021/07/10 12:12:48;;;;;;;57.17;2.60;;;39.50;1.00;;;;;;5071610;28;20447;-69
2021/07/10 12:15:17;;;;;;;56.87;2.50;;;39.90;1.00;;;;;;5072186;28;20471;-70
2021/07/10 12:17:46;;;;;;;57.30;2.43;;;39.90;1.00;;;;;;5072030;28;20530;-70
2021/07/10 12:20:14;;;;;;;56.87;2.37;;;39.80;1.00;;;;;;5071904;28;20487;-70
2021/07/10 12:22:55;;;;;;;57.60;2.53;;;39.50;1.00;;;;;;5070158;28;20547;-70
2021/07/10 12:25:25;;;;;;;57.10;2.63;;;39.30;1.00;;;;;;5071505;28;20471;-69
2021/07/10 12:27:58;;;;;;;57.17;2.20;;;38.40;1.00;;;;;;5071778;28;20454;-70
2021/07/10 12:30:40;;;;;;;56.97;2.10;;;37.60;1.00;;;;;;5072271;28;20526;-70
2021/07/10 12:33:34;;;;;;;56.90;2.10;;;37.50;1.00;;;;;;5071481;28;20446;-70
2021/07/10 12:36:03;;;;;;;57.60;2.20;;;37.70;1.00;;;;;;5072209;28;20933;-69
2021/07/10 12:38:32;;;;;;;57.50;2.47;;;38.10;1.00;;;;;;5071922;28;20572;-70
2021/07/10 12:41:21;;;;;;;57.03;2.10;;;38.30;1.00;;;;;;5071847;28;20486;-70
2021/07/10 12:43:49;;;;;;;57.17;2.50;;;38.60;1.00;;;;;;5071708;28;20499;-69
2021/07/10 12:46:16;;;;;;;57.07;2.27;;;38.90;1.00;;;;;;5071557;28;20534;-70
2021/07/10 12:48:43;;;;;;;57.20;2.33;;;39.20;1.00;;;;;;5071424;28;20475;-70
2021/07/10 12:51:10;;;;;;;56.87;2.30;;;39.00;1.00;;;;;;5071520;28;20443;-70